Terminal Aerodrome Forecast
Issued by NWS

Home | Current Version | Previous Version | Text Only | Print | Product List | Glossary Off
Versions: 1 2 3 4 5 6 7 8 9 10 11 12 13 14 15

000
FTUS41 KCLE 211139
TAFFDY
TAF
KFDY 211139Z 2112/2212 17005KT P6SM OVC250
     FM211600 20006KT P6SM VCTS SCT040CB OVC200
     FM212200 22006KT P6SM SCT200
     FM220700 20010KT P6SM BKN100 OVC200=

USA.gov is the U.S. government's official web portal to all federal, state and local government web resources and services.